Time;durP1;ratioP1;P1;durP2;ratioP2;P2;SDS_P1;SDS_P2;PMS_P1;PMS_P2;Temp;Humidity;BMP_temperature;BMP_pressure;BME280_temperature;BME280_humidity;BME280_pressure;Samples;Min_cycle;Max_cycle;Signal;HPM_P1;HPM_P2
2023/06/28 00:00:28;;;;;;;2.23;1.93;;;;;;;20.99;76.24;100462.94;5075096;28;20192;-75
2023/06/28 00:02:55;;;;;;;2.37;2.03;;;;;;;20.96;76.66;100453.38;5093421;28;20202;-75
2023/06/28 00:05:21;;;;;;;2.30;2.07;;;;;;;20.95;77.24;100450.84;5085665;28;20201;-75
2023/06/28 00:07:46;;;;;;;2.90;2.10;;;;;;;20.91;77.58;100455.41;5079177;28;20338;-75
2023/06/28 00:10:12;;;;;;;2.83;1.93;;;;;;;20.89;78.04;100462.53;5088126;28;20277;-75
2023/06/28 00:12:37;;;;;;;3.10;1.80;;;;;;;20.85;78.35;100453.09;5091500;28;20715;-75
2023/06/28 00:15:03;;;;;;;2.73;1.73;;;;;;;20.82;78.38;100453.22;5088425;28;20215;-75
2023/06/28 00:17:29;;;;;;;2.30;1.77;;;;;;;20.81;78.50;100454.16;5079150;28;20194;-75
2023/06/28 00:19:55;;;;;;;1.90;1.70;;;;;;;20.77;78.56;100453.47;5082327;28;21992;-75
2023/06/28 00:22:30;;;;;;;2.60;1.90;;;;;;;20.76;78.20;100457.00;5080351;28;20193;-74
2023/06/28 00:25:00;;;;;;;2.30;1.70;;;;;;;20.74;78.46;100447.47;5085228;28;20220;-75
2023/06/28 00:27:26;;;;;;;3.03;1.80;;;;;;;20.71;78.50;100446.69;5083472;28;20196;-76
2023/06/28 00:29:51;;;;;;;2.23;2.03;;;;;;;20.71;78.13;100454.59;5083851;28;20357;-75
2023/06/28 00:32:17;;;;;;;1.77;1.33;;;;;;;20.69;77.90;100456.44;5082625;28;20215;-75
2023/06/28 00:34:42;;;;;;;1.43;1.33;;;;;;;20.68;78.06;100462.59;5081922;28;20211;-75
2023/06/28 00:37:08;;;;;;;2.43;1.77;;;;;;;20.65;77.84;100462.75;5081095;28;20193;-75
2023/06/28 00:39:34;;;;;;;2.10;1.67;;;;;;;20.65;77.50;100459.28;5092804;28;20810;-75
2023/06/28 00:42:00;;;;;;;2.47;1.90;;;;;;;20.64;77.77;100462.84;5089193;28;20262;-73
2023/06/28 00:44:25;;;;;;;2.40;1.80;;;;;;;20.63;77.96;100466.41;5086080;28;20207;-75
2023/06/28 00:46:52;;;;;;;2.40;1.90;;;;;;;20.62;77.62;100472.56;5083980;28;20395;-75
2023/06/28 00:49:17;;;;;;;2.67;1.80;;;;;;;20.58;77.43;100455.25;5085401;28;20204;-74
2023/06/28 00:51:44;;;;;;;3.57;2.27;;;;;;;20.54;77.03;100463.28;5080783;28;20181;-75
2023/06/28 00:54:09;;;;;;;2.03;1.83;;;;;;;20.54;77.20;100465.06;5092697;28;20206;-74
2023/06/28 00:56:36;;;;;;;2.37;2.13;;;;;;;20.52;76.33;100465.16;5078812;28;20253;-75
2023/06/28 00:59:03;;;;;;;1.97;1.83;;;;;;;20.52;76.84;100469.53;5085785;28;20203;-75
2023/06/28 01:01:28;;;;;;;2.80;2.00;;;;;;;20.50;77.31;100467.00;5080850;28;20195;-74
2023/06/28 01:03:55;;;;;;;2.23;2.03;;;;;;;20.49;77.89;100464.44;5086533;28;20560;-75
2023/06/28 01:06:21;;;;;;;2.50;1.90;;;;;;;20.43;76.99;100465.56;5081120;28;20186;-75
2023/06/28 01:08:48;;;;;;;2.63;2.40;;;;;;;20.42;76.92;100466.47;5097815;28;20190;-75
2023/06/28 01:11:13;;;;;;;1.97;1.70;;;;;;;20.41;77.30;100470.91;5085926;28;20302;-74
2023/06/28 01:13:40;;;;;;;2.50;2.00;;;;;;;20.41;77.86;100457.75;5087226;28;20328;-75
2023/06/28 01:16:05;;;;;;;2.30;1.80;;;;;;;20.43;78.42;100459.47;5082621;28;20728;-75
2023/06/28 01:18:33;;;;;;;2.73;1.70;;;;;;;20.41;78.13;100463.03;5081412;28;20312;-75
2023/06/28 01:21:05;;;;;;;2.47;2.13;;;;;;;20.39;78.45;100458.78;5079841;28;20315;-75
2023/06/28 01:23:31;;;;;;;2.80;2.57;;;;;;;20.36;79.14;100453.66;5094834;27;20262;-75
2023/06/28 01:26:02;;;;;;;3.23;2.37;;;;;;;20.37;80.04;100465.88;5077645;28;20200;-75
2023/06/28 01:28:28;;;;;;;3.13;2.30;;;;;;;20.35;80.09;100473.81;5081767;28;20193;-74
2023/06/28 01:30:54;;;;;;;2.33;2.13;;;;;;;20.33;80.07;100464.31;5083571;28;20202;-75
2023/06/28 01:33:19;;;;;;;2.83;2.10;;;;;;;20.28;79.94;100469.78;5091235;28;20557;-73
2023/06/28 01:35:45;;;;;;;2.23;1.80;;;;;;;20.23;79.64;100467.38;5088131;28;20192;-74
2023/06/28 01:38:12;;;;;;;4.87;2.23;;;;;;;20.20;79.81;100469.25;5079920;28;20550;-75
2023/06/28 01:40:39;;;;;;;1.93;1.70;;;;;;;20.18;80.28;100464.09;5085206;28;20188;-75
2023/06/28 01:43:06;;;;;;;2.80;2.37;;;;;;;20.18;80.44;100471.97;5083948;28;20189;-74
2023/06/28 01:45:34;;;;;;;2.47;1.77;;;;;;;20.17;81.82;100466.81;5079536;28;20193;-74
2023/06/28 01:48:01;;;;;;;5.07;2.20;;;;;;;20.17;82.32;100466.81;5072229;28;20200;-76
2023/06/28 01:50:27;;;;;;;2.40;2.20;;;;;;;20.16;82.85;100470.34;5085210;28;20268;-74
2023/06/28 01:52:57;;;;;;;2.67;2.03;;;;;;;20.12;83.39;100471.41;5079906;28;20194;-75
2023/06/28 01:55:23;;;;;;;2.23;1.87;;;;;;;20.08;83.44;100473.34;5084122;28;20764;-74
2023/06/28 01:57:48;;;;;;;2.77;2.30;;;;;;;20.06;83.52;100468.13;5088745;28;20277;-73
2023/06/28 02:00:15;;;;;;;4.83;2.40;;;;;;;20.03;83.71;100473.56;5078317;28;20443;-75
2023/06/28 02:02:40;;;;;;;2.60;2.40;;;;;;;20.00;84.23;100484.19;5089779;28;20223;-75
2023/06/28 02:05:06;;;;;;;3.17;2.27;;;;;;;19.97;84.71;100472.94;5086459;28;20861;-75
2023/06/28 02:07:31;;;;;;;2.57;2.00;;;;;;;19.93;84.96;100472.25;5081034;28;20195;-75
2023/06/28 02:09:56;;;;;;;3.10;2.33;;;;;;;19.90;85.13;100473.25;5079836;28;20216;-75
2023/06/28 02:12:22;;;;;;;2.33;2.13;;;;;;;19.87;85.46;100478.63;5092023;28;20720;-74
2023/06/28 02:14:51;;;;;;;2.90;2.40;;;;;;;19.84;85.38;100483.13;5090361;28;20678;-75
2023/06/28 02:17:20;;;;;;;2.53;2.07;;;;;;;19.79;85.89;100476.31;5080161;28;20638;-75
2023/06/28 02:19:46;;;;;;;2.77;2.20;;;;;;;19.77;86.25;100483.41;5075123;28;20264;-75
2023/06/28 02:22:12;;;;;;;2.70;2.33;;;;;;;19.75;86.96;100469.47;5082253;28;20199;-75
2023/06/28 02:24:37;;;;;;;4.97;2.40;;;;;;;19.74;86.23;100473.03;5082745;28;20277;-74
2023/06/28 02:27:04;;;;;;;2.27;1.77;;;;;;;19.67;83.89;100476.00;5087645;28;20218;-75
2023/06/28 02:29:29;;;;;;;2.93;2.00;;;;;;;19.66;84.56;100477.78;5084217;28;20249;-75
2023/06/28 02:31:55;;;;;;;2.67;2.17;;;;;;;19.64;84.48;100477.00;5077336;28;20191;-75
2023/06/28 02:34:20;;;;;;;3.77;1.87;;;;;;;19.64;84.46;100472.59;5077102;28;20691;-75
2023/06/28 02:36:46;;;;;;;2.40;1.97;;;;;;;19.61;83.50;100470.09;5088496;28;20191;-75
2023/06/28 02:39:11;;;;;;;2.10;1.73;;;;;;;19.60;82.83;100470.16;5089146;28;20284;-74
2023/06/28 02:41:36;;;;;;;2.53;1.90;;;;;;;19.61;83.02;100472.72;5088776;28;20322;-75
2023/06/28 02:44:02;;;;;;;2.93;2.47;;;;;;;19.64;84.31;100474.38;5082851;28;20670;-75
2023/06/28 02:46:27;;;;;;;3.10;2.00;;;;;;;19.64;83.79;100474.38;5082385;28;20241;-75
2023/06/28 02:48:52;;;;;;;2.83;2.03;;;;;;;19.62;82.15;100479.69;5084799;28;20193;-75
2023/06/28 02:51:17;;;;;;;2.20;2.00;;;;;;;19.60;82.17;100472.78;5078082;28;20306;-75
2023/06/28 02:53:44;;;;;;;3.03;1.93;;;;;;;19.59;82.57;100468.44;5088346;28;20202;-75
2023/06/28 02:56:12;;;;;;;2.10;1.60;;;;;;;19.60;82.84;100470.16;5094060;28;20659;-76
2023/06/28 02:58:38;;;;;;;2.43;1.90;;;;;;;19.57;82.44;100476.41;5087409;28;20292;-74
2023/06/28 03:01:03;;;;;;;1.93;1.80;;;;;;;19.57;82.96;100467.69;5082854;28;20226;-75
2023/06/28 03:03:33;;;;;;;2.30;1.90;;;;;;;19.58;83.44;100472.03;5101631;28;20285;-75
2023/06/28 03:05:58;;;;;;;2.33;2.00;;;;;;;19.58;83.86;100466.78;5099297;28;20645;-75
2023/06/28 03:08:24;;;;;;;2.77;2.20;;;;;;;19.59;84.45;100473.69;5094554;28;20195;-75
2023/06/28 03:10:49;;;;;;;2.03;1.80;;;;;;;19.59;84.65;100477.19;5090798;28;20217;-75
2023/06/28 03:13:14;;;;;;;2.07;1.90;;;;;;;19.58;85.11;100480.75;5094498;28;20197;-75
2023/06/28 03:15:40;;;;;;;3.60;2.30;;;;;;;19.57;86.18;100473.78;5101167;28;20209;-74
2023/06/28 03:18:05;;;;;;;2.57;2.17;;;;;;;19.56;86.84;100479.13;5088077;28;20197;-75
2023/06/28 03:20:31;;;;;;;3.53;2.37;;;;;;;19.53;87.04;100466.94;5083612;28;20185;-75
2023/06/28 03:22:56;;;;;;;3.03;2.20;;;;;;;19.49;87.23;100466.25;5079886;28;20200;-75
2023/06/28 03:25:21;;;;;;;3.00;2.37;;;;;;;19.44;87.15;100468.19;5087487;28;20718;-75
2023/06/28 03:27:47;;;;;;;2.53;2.33;;;;;;;19.43;87.68;100468.28;5092030;27;20229;-75
2023/06/28 03:30:12;;;;;;;2.77;2.57;;;;;;;19.40;87.47;100466.66;5084914;28;20209;-73
2023/06/28 03:32:37;;;;;;;3.73;2.30;;;;;;;19.38;87.49;100465.00;5086007;28;20230;-75
2023/06/28 03:35:03;;;;;;;2.70;2.27;;;;;;;19.34;87.69;100465.16;5089591;28;20201;-74
2023/06/28 03:37:28;;;;;;;2.47;2.27;;;;;;;19.31;88.19;100460.03;5082663;28;20188;-75
2023/06/28 03:39:54;;;;;;;3.37;2.50;;;;;;;19.30;88.27;100468.81;5086578;28;20617;-75
2023/06/28 03:42:19;;;;;;;2.40;2.20;;;;;;;19.28;88.39;100459.31;5081675;28;20491;-75
2023/06/28 03:44:44;;;;;;;2.60;2.40;;;;;;;19.26;88.56;100461.97;5085932;28;20816;-76
2023/06/28 03:47:10;;;;;;;4.03;2.50;;;;;;;19.23;88.81;100456.84;5084672;28;20194;-75
2023/06/28 03:49:35;;;;;;;2.43;2.13;;;;;;;19.22;89.16;100460.41;5086172;28;20202;-75
2023/06/28 03:52:00;;;;;;;2.23;2.03;;;;;;;19.23;89.79;100458.63;5081862;28;20190;-75
2023/06/28 03:54:26;;;;;;;2.37;2.17;;;;;;;19.24;89.74;100455.09;5080171;28;20268;-74
2023/06/28 03:56:51;;;;;;;3.43;2.40;;;;;;;19.25;90.00;100462.06;5089888;28;20241;-74
2023/06/28 03:59:16;;;;;;;2.57;2.20;;;;;;;19.26;90.27;100459.34;5087428;28;20189;-74
2023/06/28 04:01:42;;;;;;;3.27;2.10;;;;;;;19.26;90.51;100456.72;5097855;28;20198;-75
2023/06/28 04:04:07;;;;;;;4.97;2.70;;;;;;;19.26;90.35;100459.34;5085070;28;20209;-74
2023/06/28 04:06:32;;;;;;;4.53;2.63;;;;;;;19.26;90.32;100458.53;5080433;28;20292;-73
2023/06/28 04:08:58;;;;;;;3.13;2.77;;;;;;;19.26;89.76;100448.03;5090812;28;20219;-74
2023/06/28 04:11:23;;;;;;;3.73;2.90;;;;;;;19.28;90.07;100451.44;5081468;28;20698;-74
2023/06/28 04:13:48;;;;;;;3.07;2.37;;;;;;;19.29;89.94;100461.84;5088195;28;20205;-74
2023/06/28 04:16:14;;;;;;;2.63;2.43;;;;;;;19.31;89.59;100457.41;5086649;28;20192;-75
2023/06/28 04:18:39;;;;;;;3.80;2.23;;;;;;;19.35;89.64;100460.75;5085703;28;20183;-75
2023/06/28 04:21:04;;;;;;;2.43;2.23;;;;;;;19.36;89.25;100462.44;5089546;28;20195;-74
2023/06/28 04:23:30;;;;;;;2.67;2.27;;;;;;;19.41;89.11;100470.13;5082238;28;20210;-74
2023/06/28 04:25:57;;;;;;;4.33;2.73;;;;;;;19.47;89.63;100473.31;5087203;28;20204;-74
2023/06/28 04:28:23;;;;;;;4.93;2.53;;;;;;;19.55;89.37;100466.91;5088271;28;20232;-74
2023/06/28 04:30:48;;;;;;;2.60;2.20;;;;;;;19.60;89.16;100471.03;5096129;28;20567;-74
2023/06/28 04:33:14;;;;;;;2.90;2.40;;;;;;;19.66;88.59;100475.16;5093414;27;20731;-74
2023/06/28 04:35:42;;;;;;;2.57;2.13;;;;;;;19.73;88.43;100473.97;5083564;28;20237;-74
2023/06/28 04:38:07;;;;;;;2.93;2.00;;;;;;;19.85;88.27;100474.34;5087111;28;20240;-73
2023/06/28 04:40:33;;;;;;;4.20;2.20;;;;;;;19.97;87.40;100468.56;5084081;28;20183;-73
2023/06/28 04:42:58;;;;;;;4.00;2.17;;;;;;;20.08;87.54;100468.91;5081950;28;20652;-74
2023/06/28 04:45:35;;;;;;;4.20;2.17;;;;;;;20.18;87.92;100465.88;5094841;28;20220;-73
2023/06/28 04:48:02;;;;;;;2.43;2.23;;;;;;;20.27;87.67;100473.31;5091370;28;20198;-74
2023/06/28 04:50:28;;;;;;;3.97;2.70;;;;;;;20.34;87.75;100463.38;5088131;28;20211;-75
2023/06/28 04:52:53;;;;;;;2.60;1.90;;;;;;;20.43;87.65;100464.72;5085600;28;20181;-75
2023/06/28 04:55:18;;;;;;;2.30;1.80;;;;;;;20.48;88.26;100457.47;5087217;28;20214;-75
2023/06/28 04:57:44;;;;;;;4.73;2.60;;;;;;;20.55;88.42;100465.00;5088625;28;20262;-75
2023/06/28 05:00:11;;;;;;;4.63;2.30;;;;;;;20.64;88.35;100461.06;5081895;28;20866;-75
2023/06/28 05:02:36;;;;;;;2.60;2.33;;;;;;;20.68;88.04;100465.25;5081505;28;20188;-75
2023/06/28 05:05:02;;;;;;;4.40;2.27;;;;;;;20.71;87.56;100466.91;5092217;28;20229;-75
2023/06/28 05:07:28;;;;;;;3.70;2.10;;;;;;;20.71;86.97;100464.25;5087098;28;20185;-75
2023/06/28 05:09:54;;;;;;;2.87;2.20;;;;;;;20.69;87.50;100460.84;5096391;28;20203;-75
2023/06/28 05:12:19;;;;;;;4.47;2.20;;;;;;;20.68;87.63;100461.78;5091755;28;20185;-75
2023/06/28 05:14:45;;;;;;;2.50;1.87;;;;;;;20.70;87.97;100452.03;5097179;28;20210;-75
2023/06/28 05:17:10;;;;;;;2.93;2.30;;;;;;;20.75;87.91;100463.19;5093490;28;20312;-75
2023/06/28 05:19:36;;;;;;;2.80;2.10;;;;;;;20.80;88.03;100460.34;5090447;28;20212;-75
2023/06/28 05:22:01;;;;;;;3.23;2.53;;;;;;;20.78;86.40;100457.78;5094753;28;20184;-75
2023/06/28 05:24:27;;;;;;;3.57;2.33;;;;;;;20.84;87.05;100459.25;5090210;28;20256;-76
2023/06/28 05:26:52;;;;;;;5.60;2.43;;;;;;;20.89;87.74;100456.41;5099222;28;20199;-75
2023/06/28 05:29:19;;;;;;;4.53;2.47;;;;;;;20.91;87.83;100465.94;5092327;28;20185;-75
2023/06/28 05:31:44;;;;;;;3.00;2.43;;;;;;;20.93;87.93;100458.81;5093552;28;20191;-75
2023/06/28 05:34:11;;;;;;;5.00;2.60;;;;;;;20.93;86.17;100468.47;5092473;28;20215;-75
2023/06/28 05:36:37;;;;;;;3.33;2.57;;;;;;;20.87;85.56;100464.38;5093107;28;20188;-75
2023/06/28 05:39:02;;;;;;;4.37;2.53;;;;;;;20.76;83.33;100464.06;5111632;28;20219;-75
2023/06/28 05:41:28;;;;;;;2.70;2.30;;;;;;;20.68;83.11;100465.25;5094044;28;20189;-74
2023/06/28 05:43:54;;;;;;;4.27;2.60;;;;;;;20.56;82.85;100473.72;5083503;28;20705;-75
2023/06/28 05:46:19;;;;;;;3.53;2.77;;;;;;;20.47;82.58;100467.13;5088344;28;20196;-75
2023/06/28 05:48:46;;;;;;;3.97;2.77;;;;;;;20.46;83.84;100472.47;5097975;28;20236;-74
2023/06/28 05:51:13;;;;;;;6.83;3.20;;;;;;;20.40;81.86;100468.34;5091831;28;20236;-75
2023/06/28 05:53:40;;;;;;;7.77;3.30;;;;;;;20.31;81.50;100472.28;5080827;28;20223;-74
2023/06/28 05:56:06;;;;;;;8.73;4.17;;;;;;;20.30;82.42;100469.69;5091906;28;20663;-75
2023/06/28 05:58:31;;;;;;;6.47;4.13;;;;;;;20.31;82.85;100472.28;5097952;28;20195;-74
2023/06/28 06:00:56;;;;;;;5.17;4.20;;;;;;;20.37;82.20;100471.97;5088163;28;20288;-75
2023/06/28 06:03:23;;;;;;;8.30;4.30;;;;;;;20.41;83.18;100473.53;5087850;28;20248;-74
2023/06/28 06:05:48;;;;;;;7.03;4.10;;;;;;;20.46;82.76;100470.69;5101614;28;20210;-75
2023/06/28 06:08:14;;;;;;;4.50;3.30;;;;;;;20.52;81.87;100473.03;5108743;28;20191;-75
2023/06/28 06:10:39;;;;;;;5.27;3.60;;;;;;;20.53;81.42;100477.38;5082341;28;20196;-75
2023/06/28 06:13:04;;;;;;;4.80;2.70;;;;;;;20.50;81.78;100477.50;5087738;28;20535;-73
2023/06/28 06:15:30;;;;;;;5.77;3.20;;;;;;;20.32;80.95;100483.63;5086074;28;20850;-75
2023/06/28 06:17:55;;;;;;;8.10;3.17;;;;;;;20.47;81.82;100482.91;5088239;28;20191;-75
2023/06/28 06:20:20;;;;;;;8.30;3.20;;;;;;;20.44;81.78;100484.81;5092601;28;20391;-75
2023/06/28 06:22:46;;;;;;;6.43;2.80;;;;;;;20.26;81.58;100482.13;5081918;28;20181;-76
2023/06/28 06:25:11;;;;;;;6.03;3.13;;;;;;;20.23;81.59;100479.63;5097713;28;20215;-75
2023/06/28 06:27:37;;;;;;;5.57;2.80;;;;;;;20.09;81.27;100486.38;5092386;28;20190;-75
2023/06/28 06:30:03;;;;;;;8.17;3.47;;;;;;;20.21;81.04;100489.38;5093955;28;20219;-75
2023/06/28 06:32:28;;;;;;;7.10;3.13;;;;;;;20.44;80.61;100487.47;5088138;28;20179;-75
2023/06/28 06:34:57;;;;;;;6.23;2.90;;;;;;;20.35;80.81;100494.84;5089615;28;20575;-75
2023/06/28 06:37:23;;;;;;;4.03;2.70;;;;;;;20.55;80.40;100483.41;5090574;28;20184;-75
2023/06/28 06:39:49;;;;;;;4.57;3.00;;;;;;;20.59;79.13;100488.50;5092738;28;20249;-75
2023/06/28 06:42:15;;;;;;;8.40;3.40;;;;;;;20.69;79.88;100490.63;5085260;28;20191;-75
2023/06/28 06:44:40;;;;;;;5.13;2.73;;;;;;;20.72;79.33;100492.25;5085362;28;20689;-75
2023/06/28 06:47:06;;;;;;;7.13;3.00;;;;;;;20.88;79.47;100491.53;5094696;28;20192;-75
2023/06/28 06:49:31;;;;;;;6.03;2.70;;;;;;;20.69;78.28;100497.66;5090489;28;20213;-75
2023/06/28 06:51:57;;;;;;;6.07;3.13;;;;;;;20.46;79.78;100502.22;5099442;28;20240;-75
2023/06/28 06:54:24;;;;;;;4.43;2.93;;;;;;;20.66;78.77;100496.00;5096655;28;20208;-75
2023/06/28 06:56:50;;;;;;;7.63;2.87;;;;;;;21.01;78.48;100495.28;5077951;28;20188;-75
2023/06/28 06:59:19;;;;;;;8.83;3.13;;;;;;;21.26;78.28;100501.94;5076098;28;20193;-74
2023/06/28 07:01:45;;;;;;;6.03;2.67;;;;;;;21.60;76.67;100493.19;5099196;28;20183;-74
2023/06/28 07:04:10;;;;;;;7.40;3.03;;;;;;;21.65;76.82;100490.31;5091581;28;21126;-75
2023/06/28 07:06:35;;;;;;;3.53;2.57;;;;;;;22.01;74.18;100497.22;5082847;28;20185;-75
2023/06/28 07:09:01;;;;;;;12.50;3.40;;;;;;;21.83;72.69;100499.06;5091800;28;20212;-75
2023/06/28 07:11:27;;;;;;;3.60;2.47;;;;;;;21.61;72.72;100501.97;5090594;28;21012;-75
2023/06/28 07:13:52;;;;;;;4.57;2.33;;;;;;;21.65;72.53;100505.28;5088224;28;20288;-75
2023/06/28 07:16:18;;;;;;;4.13;2.70;;;;;;;21.59;72.18;100504.63;5083688;28;20196;-75
2023/06/28 07:18:43;;;;;;;6.50;2.53;;;;;;;21.37;72.27;100510.13;5083713;28;20657;-75
2023/06/28 07:21:08;;;;;;;5.17;2.70;;;;;;;21.59;72.01;100499.34;5082299;28;20559;-75
2023/06/28 07:23:33;;;;;;;6.03;2.93;;;;;;;21.77;71.71;100517.81;5084045;28;20267;-75
2023/06/28 07:25:59;;;;;;;3.90;2.43;;;;;;;21.54;71.16;100500.53;5081493;28;20192;-76
2023/06/28 07:28:24;;;;;;;5.43;2.30;;;;;;;21.75;71.04;100509.13;5078003;28;20289;-75
2023/06/28 07:30:53;;;;;;;4.20;2.30;;;;;;;21.94;71.46;100506.38;5089893;28;20196;-75
2023/06/28 07:33:19;;;;;;;6.87;2.63;;;;;;;21.78;70.19;100509.81;5099462;28;20176;-75
2023/06/28 07:35:44;;;;;;;3.83;2.33;;;;;;;21.96;70.22;100504.50;5087557;28;20255;-75
2023/06/28 07:38:09;;;;;;;3.97;2.47;;;;;;;22.15;69.46;100508.78;5099206;28;20248;-75
2023/06/28 07:40:35;;;;;;;4.30;2.53;;;;;;;22.48;68.98;100502.63;5105173;28;20196;-75
2023/06/28 07:43:02;;;;;;;6.20;2.80;;;;;;;22.56;68.65;100505.69;5089655;28;20186;-76
2023/06/28 07:45:28;;;;;;;5.23;2.50;;;;;;;22.57;68.23;100509.19;5081100;28;20186;-75
2023/06/28 07:47:53;;;;;;;3.90;2.30;;;;;;;22.89;67.09;100506.53;5103283;28;20183;-75
2023/06/28 07:50:20;;;;;;;3.77;2.07;;;;;;;23.68;66.32;100500.13;5080010;28;20763;-75
2023/06/28 07:52:46;;;;;;;4.20;2.37;;;;;;;24.03;65.45;100496.31;5100573;28;20188;-76
2023/06/28 07:55:11;;;;;;;5.87;2.37;;;;;;;24.35;65.17;100493.44;5084079;28;20200;-75
2023/06/28 07:57:36;;;;;;;5.13;2.20;;;;;;;24.56;63.36;100490.34;5109519;27;20212;-74
2023/06/28 08:00:04;;;;;;;5.90;2.30;;;;;;;24.66;63.71;100497.59;5085114;28;20188;-75
2023/06/28 08:02:29;;;;;;;5.10;2.07;;;;;;;25.03;62.62;100482.91;5092021;28;20204;-73
2023/06/28 08:04:54;;;;;;;5.50;2.03;;;;;;;24.51;63.01;100488.00;5098217;28;20645;-74
2023/06/28 08:07:20;;;;;;;4.17;2.43;;;;;;;24.50;61.65;100481.84;5085804;28;20300;-74
2023/06/28 08:09:45;;;;;;;3.07;1.87;;;;;;;24.85;61.33;100474.38;5090373;28;20200;-75
2023/06/28 08:12:11;;;;;;;4.77;1.90;;;;;;;24.77;60.62;100472.25;5096888;28;20991;-75
2023/06/28 08:14:36;;;;;;;4.67;2.07;;;;;;;24.42;60.77;100483.31;5105305;28;20249;-75
2023/06/28 08:17:02;;;;;;;3.30;2.03;;;;;;;24.45;60.85;100480.44;5090463;28;20284;-75
2023/06/28 08:19:27;;;;;;;3.75;2.10;;;;;;;24.97;60.47;100473.56;5093717;28;20177;-75
2023/06/28 08:21:53;;;;;;;2.67;1.80;;;;;;;25.31;60.55;100473.09;5092124;28;20604;-75
2023/06/28 08:24:18;;;;;;;2.42;1.50;;;;;;;26.22;58.88;100482.72;5096309;28;20197;-76
2023/06/28 08:26:45;;;;;;;4.63;2.22;;;;;;;26.17;58.24;100474.22;5089138;28;20184;-74
2023/06/28 08:29:11;;;;;;;3.47;1.80;;;;;;;25.05;59.99;100481.00;5094559;28;20189;-75
2023/06/28 08:31:36;;;;;;;4.72;1.77;;;;;;;25.14;60.25;100479.53;5085682;28;20460;-75
2023/06/28 08:34:03;;;;;;;2.92;1.73;;;;;;;26.14;59.68;100479.78;5081734;28;20214;-75
2023/06/28 08:36:29;;;;;;;3.45;1.65;;;;;;;25.64;59.36;100472.59;5085455;28;20169;-75
2023/06/28 08:38:54;;;;;;;3.45;2.17;;;;;;;25.23;59.72;100470.97;5085836;28;20173;-74
2023/06/28 08:41:21;;;;;;;4.03;1.98;;;;;;;24.77;60.75;100472.25;5088387;28;20173;-75
2023/06/28 08:43:53;;;;;;;4.35;2.42;;;;;;;25.02;60.81;100479.41;5083338;28;20214;-75
2023/06/28 08:46:18;;;;;;;4.00;1.92;;;;;;;25.72;59.87;100472.06;5085715;28;20271;-74
2023/06/28 08:48:46;;;;;;;2.58;1.75;;;;;;;25.82;58.86;100475.75;5094790;28;20279;-75
2023/06/28 08:51:13;;;;;;;3.15;1.83;;;;;;;25.31;58.22;100476.59;5085484;28;20715;-75
2023/06/28 08:53:43;;;;;;;3.50;1.83;;;;;;;25.33;57.96;100471.19;5085846;28;20210;-75
2023/06/28 08:56:09;;;;;;;3.23;1.80;;;;;;;25.83;58.13;100469.50;5088979;28;20189;-75
2023/06/28 08:58:36;;;;;;;2.37;1.80;;;;;;;26.24;57.55;100469.34;5070261;28;20197;-75
2023/06/28 09:01:02;;;;;;;4.70;1.97;;;;;;;25.53;58.22;100459.25;5070230;28;20236;-74
2023/06/28 09:03:29;;;;;;;3.97;1.70;;;;;;;26.01;57.35;100466.50;5078780;28;20965;-73
2023/06/28 09:05:55;;;;;;;5.83;2.40;;;;;;;25.87;57.92;100464.81;5090928;28;20208;-76
2023/06/28 09:08:21;;;;;;;7.10;2.33;;;;;;;25.48;58.83;100461.38;5087805;28;20641;-75
2023/06/28 09:10:47;;;;;;;3.27;1.90;;;;;;;25.31;58.73;100454.56;5081711;28;20220;-75
2023/06/28 09:13:19;;;;;;;3.57;1.90;;;;;;;25.64;58.58;100463.81;5082340;28;20614;-75
2023/06/28 09:15:45;;;;;;;4.73;2.20;;;;;;;24.89;59.23;100460.84;5094961;28;20193;-75
2023/06/28 09:18:10;;;;;;;4.00;2.07;;;;;;;25.10;58.62;100457.69;5085608;28;20262;-74
2023/06/28 09:20:36;;;;;;;4.30;2.40;;;;;;;25.14;58.90;100456.56;5098828;28;20178;-75
2023/06/28 09:23:01;;;;;;;4.90;2.17;;;;;;;25.22;59.75;100450.75;5087979;28;21662;-74
2023/06/28 09:25:29;;;;;;;4.17;2.40;;;;;;;25.37;58.64;100449.69;5096324;28;20204;-75
2023/06/28 09:27:56;;;;;;;6.20;2.57;;;;;;;24.86;59.49;100454.91;5076740;28;20243;-75
2023/06/28 09:30:21;;;;;;;4.37;2.17;;;;;;;25.00;59.12;100451.34;5084604;28;21006;-75
2023/06/28 09:32:51;;;;;;;4.57;1.87;;;;;;;25.64;58.18;100450.56;5088099;28;20219;-74
2023/06/28 09:35:21;;;;;;;3.93;1.93;;;;;;;26.14;58.03;100451.44;5085913;28;20292;-73
2023/06/28 09:37:54;;;;;;;3.97;2.27;;;;;;;26.33;56.84;100453.59;5098194;28;20184;-75
2023/06/28 09:40:19;;;;;;;4.23;1.70;;;;;;;26.47;57.21;100441.16;5095373;28;20184;-74
2023/06/28 09:42:46;;;;;;;2.97;1.87;;;;;;;26.51;57.90;100447.91;5104511;28;20188;-77
2023/06/28 09:45:28;;;;;;;3.33;2.20;;;;;;;25.95;57.67;100448.38;5112721;28;20538;-74
2023/06/28 09:47:58;;;;;;;5.57;2.03;;;;;;;26.09;57.82;100439.44;5085171;28;20185;-74
2023/06/28 09:50:47;;;;;;;2.77;2.03;;;;;;;26.60;57.44;100433.97;5083381;28;20259;-74
2023/06/28 09:53:17;;;;;;;3.07;1.80;;;;;;;27.16;56.25;100440.44;5089370;28;20196;-74
2023/06/28 09:55:44;;;;;;;3.50;2.10;;;;;;;27.21;55.58;100426.78;5081444;28;20216;-75
2023/06/28 09:58:12;;;;;;;3.77;1.87;;;;;;;27.19;55.62;100421.59;5086172;28;20242;-74
2023/06/28 10:00:38;;;;;;;3.20;1.70;;;;;;;27.25;55.75;100425.59;5095041;28;20185;-75
2023/06/28 10:03:09;;;;;;;3.37;1.80;;;;;;;26.99;55.37;100422.28;5083221;28;20212;-74
2023/06/28 10:05:37;;;;;;;3.77;1.87;;;;;;;26.71;56.07;100417.22;5073460;28;20194;-75
2023/06/28 10:08:28;;;;;;;3.50;1.90;;;;;;;27.01;56.60;100412.38;5080862;28;20620;-75
2023/06/28 10:10:55;;;;;;;5.73;2.37;;;;;;;26.81;56.89;100414.75;5082515;28;20216;-75
2023/06/28 10:13:21;;;;;;;3.53;2.17;;;;;;;26.24;57.19;100416.31;5078415;28;20198;-76
2023/06/28 10:15:54;;;;;;;5.20;2.03;;;;;;;25.95;57.77;100416.56;5088426;28;20196;-74
2023/06/28 10:18:20;;;;;;;5.97;2.53;;;;;;;25.58;58.30;100427.13;5086801;28;20930;-75
2023/06/28 10:20:47;;;;;;;5.20;2.23;;;;;;;25.56;58.32;100432.56;5083316;28;20680;-75
2023/06/28 10:23:13;;;;;;;3.70;2.30;;;;;;;25.64;59.17;100424.91;5082789;28;20296;-75
2023/06/28 10:25:44;;;;;;;2.17;1.63;;;;;;;25.65;59.16;100433.69;5097450;28;20688;-75
2023/06/28 10:28:10;;;;;;;4.07;2.13;;;;;;;25.79;59.91;100430.06;5093640;28;20629;-74
2023/06/28 10:30:38;;;;;;;2.87;1.77;;;;;;;26.09;59.12;100440.28;5092462;28;20219;-75
2023/06/28 10:33:06;;;;;;;3.90;2.20;;;;;;;25.71;58.80;100430.63;5079676;28;20186;-75
2023/06/28 10:35:31;;;;;;;2.90;2.20;;;;;;;26.00;58.56;100422.38;5081884;28;20205;-75
2023/06/28 10:37:57;;;;;;;2.43;2.10;;;;;;;26.58;57.86;100425.25;5087850;28;20246;-74
2023/06/28 10:40:25;;;;;;;4.37;2.13;;;;;;;26.56;57.06;100428.97;5090706;28;20192;-74
2023/06/28 10:42:51;;;;;;;3.37;1.93;;;;;;;26.06;57.99;100431.69;5096921;28;20180;-74
2023/06/28 10:45:16;;;;;;;4.73;2.20;;;;;;;26.38;57.54;100432.06;5094190;28;20807;-76
2023/06/28 10:47:55;;;;;;;2.83;1.87;;;;;;;26.76;57.04;100424.84;5101013;28;20191;-75
2023/06/28 10:50:22;;;;;;;2.87;1.80;;;;;;;26.95;57.14;100423.47;5095223;28;20291;-75
2023/06/28 10:52:50;;;;;;;1.97;1.80;;;;;;;27.20;56.91;100415.34;5076251;28;20194;-75
2023/06/28 10:55:28;;;;;;;2.80;1.77;;;;;;;27.46;57.05;100420.44;5074614;28;20734;-76
2023/06/28 10:58:05;;;;;;;2.43;1.70;;;;;;;27.25;56.00;100412.31;5084972;28;20181;-75
2023/06/28 11:00:36;;;;;;;1.73;1.60;;;;;;;27.56;56.93;100417.91;5103145;28;20190;-76
2023/06/28 11:03:03;;;;;;;2.43;1.90;;;;;;;27.86;56.44;100410.25;5092351;28;20186;-75
2023/06/28 11:05:47;;;;;;;3.40;1.67;;;;;;;28.18;56.52;100422.81;5084488;28;20200;-74
2023/06/28 11:08:14;;;;;;;3.37;2.13;;;;;;;27.21;55.28;100416.16;5082954;28;20545;-75
2023/06/28 11:10:41;;;;;;;3.70;2.30;;;;;;;26.12;56.50;100413.56;5090415;28;20226;-74
2023/06/28 11:13:39;;;;;;;3.23;2.23;;;;;;;26.38;56.38;100410.84;5079723;28;20212;-75
2023/06/28 11:16:20;;;;;;;2.10;1.47;;;;;;;26.97;55.77;100414.44;5081996;28;20197;-74
2023/06/28 11:18:47;;;;;;;3.63;1.73;;;;;;;27.53;55.81;100420.81;5091377;28;20192;-74
2023/06/28 11:21:15;;;;;;;4.80;2.40;;;;;;;27.66;54.59;100420.69;5084706;28;20177;-76